sensor_id;sensor_type;location;lat;lon;timestamp;P1;durP1;ratioP1;P2;durP2;ratioP2
17032;SDS011;63208;52.178;21.016;2023-07-24T00:00:22;104.87;;;34.37;;
17032;SDS011;63208;52.178;21.016;2023-07-24T00:02:50;104.20;;;34.20;;
17032;SDS011;63208;52.178;21.016;2023-07-24T00:05:18;108.00;;;36.10;;
17032;SDS011;63208;52.178;21.016;2023-07-24T00:07:45;105.13;;;33.93;;
17032;SDS011;63208;52.178;21.016;2023-07-24T00:10:12;107.33;;;34.50;;
17032;SDS011;63208;52.178;21.016;2023-07-24T00:12:39;110.17;;;36.67;;
17032;SDS011;63208;52.178;21.016;2023-07-24T00:15:06;106.40;;;33.63;;
17032;SDS011;63208;52.178;21.016;2023-07-24T00:17:33;106.10;;;33.20;;
17032;SDS011;63208;52.178;21.016;2023-07-24T00:20:01;108.13;;;34.80;;
17032;SDS011;63208;52.178;21.016;2023-07-24T00:22:28;105.10;;;33.97;;
17032;SDS011;63208;52.178;21.016;2023-07-24T00:24:55;103.37;;;33.83;;
17032;SDS011;63208;52.178;21.016;2023-07-24T00:27:22;102.93;;;34.33;;
17032;SDS011;63208;52.178;21.016;2023-07-24T00:29:48;100.17;;;33.33;;
17032;SDS011;63208;52.178;21.016;2023-07-24T00:32:16;103.03;;;36.00;;
17032;SDS011;63208;52.178;21.016;2023-07-24T00:34:42;101.27;;;34.63;;
17032;SDS011;63208;52.178;21.016;2023-07-24T00:37:11;99.93;;;34.13;;
17032;SDS011;63208;52.178;21.016;2023-07-24T00:39:37;103.47;;;34.97;;
17032;SDS011;63208;52.178;21.016;2023-07-24T00:42:04;108.10;;;35.67;;
17032;SDS011;63208;52.178;21.016;2023-07-24T00:44:31;121.73;;;35.40;;
17032;SDS011;63208;52.178;21.016;2023-07-24T00:46:58;79.57;;;32.53;;
17032;SDS011;63208;52.178;21.016;2023-07-24T00:49:25;77.83;;;33.70;;
17032;SDS011;63208;52.178;21.016;2023-07-24T00:51:52;69.27;;;32.43;;
17032;SDS011;63208;52.178;21.016;2023-07-24T00:54:20;64.90;;;29.97;;
17032;SDS011;63208;52.178;21.016;2023-07-24T00:56:49;60.50;;;29.47;;
17032;SDS011;63208;52.178;21.016;2023-07-24T00:59:16;67.20;;;31.87;;
17032;SDS011;63208;52.178;21.016;2023-07-24T01:01:43;64.23;;;30.80;;
17032;SDS011;63208;52.178;21.016;2023-07-24T01:04:10;68.10;;;31.43;;
17032;SDS011;63208;52.178;21.016;2023-07-24T01:06:37;71.60;;;32.90;;
17032;SDS011;63208;52.178;21.016;2023-07-24T01:09:04;73.93;;;33.40;;
17032;SDS011;63208;52.178;21.016;2023-07-24T01:11:39;68.70;;;32.37;;
17032;SDS011;63208;52.178;21.016;2023-07-24T01:14:12;67.80;;;33.00;;
17032;SDS011;63208;52.178;21.016;2023-07-24T01:16:42;67.53;;;31.77;;
17032;SDS011;63208;52.178;21.016;2023-07-24T01:19:11;64.03;;;31.63;;
17032;SDS011;63208;52.178;21.016;2023-07-24T01:21:44;62.20;;;32.23;;
17032;SDS011;63208;52.178;21.016;2023-07-24T01:24:23;61.03;;;30.53;;
17032;SDS011;63208;52.178;21.016;2023-07-24T01:26:57;79.77;;;33.87;;
17032;SDS011;63208;52.178;21.016;2023-07-24T01:29:24;61.33;;;31.90;;
17032;SDS011;63208;52.178;21.016;2023-07-24T01:31:51;67.53;;;32.23;;
17032;SDS011;63208;52.178;21.016;2023-07-24T01:34:18;71.10;;;32.83;;
17032;SDS011;63208;52.178;21.016;2023-07-24T01:36:45;60.67;;;33.23;;
17032;SDS011;63208;52.178;21.016;2023-07-24T01:39:12;52.97;;;29.10;;
17032;SDS011;63208;52.178;21.016;2023-07-24T01:41:39;56.63;;;28.83;;
17032;SDS011;63208;52.178;21.016;2023-07-24T01:44:07;60.23;;;30.97;;
17032;SDS011;63208;52.178;21.016;2023-07-24T01:46:34;63.23;;;30.33;;
17032;SDS011;63208;52.178;21.016;2023-07-24T01:49:01;57.07;;;29.67;;
17032;SDS011;63208;52.178;21.016;2023-07-24T01:51:28;61.43;;;30.60;;
17032;SDS011;63208;52.178;21.016;2023-07-24T01:53:55;61.50;;;31.60;;
17032;SDS011;63208;52.178;21.016;2023-07-24T01:56:22;57.50;;;30.03;;
17032;SDS011;63208;52.178;21.016;2023-07-24T01:58:48;57.67;;;30.77;;
17032;SDS011;63208;52.178;21.016;2023-07-24T02:01:16;53.73;;;30.20;;
17032;SDS011;63208;52.178;21.016;2023-07-24T02:03:44;45.67;;;29.27;;
17032;SDS011;63208;52.178;21.016;2023-07-24T02:06:10;50.33;;;29.60;;
17032;SDS011;63208;52.178;21.016;2023-07-24T02:08:37;44.57;;;26.60;;
17032;SDS011;63208;52.178;21.016;2023-07-24T02:11:04;40.90;;;26.27;;
17032;SDS011;63208;52.178;21.016;2023-07-24T02:13:31;45.27;;;26.47;;
17032;SDS011;63208;52.178;21.016;2023-07-24T02:15:57;49.80;;;28.33;;
17032;SDS011;63208;52.178;21.016;2023-07-24T02:18:25;49.67;;;28.17;;
17032;SDS011;63208;52.178;21.016;2023-07-24T02:20:52;47.33;;;27.37;;
17032;SDS011;63208;52.178;21.016;2023-07-24T02:23:19;47.83;;;27.87;;
17032;SDS011;63208;52.178;21.016;2023-07-24T02:25:46;48.20;;;27.83;;
17032;SDS011;63208;52.178;21.016;2023-07-24T02:28:17;50.30;;;29.37;;
17032;SDS011;63208;52.178;21.016;2023-07-24T02:30:43;50.63;;;28.87;;
17032;SDS011;63208;52.178;21.016;2023-07-24T02:33:11;44.93;;;26.30;;
17032;SDS011;63208;52.178;21.016;2023-07-24T02:35:39;44.37;;;26.57;;
17032;SDS011;63208;52.178;21.016;2023-07-24T02:38:07;52.07;;;27.90;;
17032;SDS011;63208;52.178;21.016;2023-07-24T02:40:35;46.83;;;27.30;;
17032;SDS011;63208;52.178;21.016;2023-07-24T02:43:02;46.60;;;27.40;;
17032;SDS011;63208;52.178;21.016;2023-07-24T02:45:29;42.97;;;25.40;;
17032;SDS011;63208;52.178;21.016;2023-07-24T02:47:56;45.60;;;26.93;;
17032;SDS011;63208;52.178;21.016;2023-07-24T02:50:23;47.20;;;28.93;;
17032;SDS011;63208;52.178;21.016;2023-07-24T02:52:51;41.00;;;25.87;;
17032;SDS011;63208;52.178;21.016;2023-07-24T02:55:18;41.10;;;25.97;;
17032;SDS011;63208;52.178;21.016;2023-07-24T02:57:45;41.97;;;26.70;;
17032;SDS011;63208;52.178;21.016;2023-07-24T03:00:12;42.70;;;27.47;;
17032;SDS011;63208;52.178;21.016;2023-07-24T03:02:39;50.43;;;28.30;;
17032;SDS011;63208;52.178;21.016;2023-07-24T03:05:06;54.70;;;30.37;;
17032;SDS011;63208;52.178;21.016;2023-07-24T03:07:33;52.13;;;28.73;;
17032;SDS011;63208;52.178;21.016;2023-07-24T03:10:02;53.47;;;29.07;;
17032;SDS011;63208;52.178;21.016;2023-07-24T03:12:29;44.27;;;26.37;;
17032;SDS011;63208;52.178;21.016;2023-07-24T03:14:56;45.23;;;26.97;;
17032;SDS011;63208;52.178;21.016;2023-07-24T03:17:23;41.43;;;25.90;;
17032;SDS011;63208;52.178;21.016;2023-07-24T03:19:50;33.93;;;24.07;;
17032;SDS011;63208;52.178;21.016;2023-07-24T03:22:17;54.17;;;29.60;;
17032;SDS011;63208;52.178;21.016;2023-07-24T03:24:45;50.47;;;29.97;;
17032;SDS011;63208;52.178;21.016;2023-07-24T03:27:13;33.13;;;23.90;;
17032;SDS011;63208;52.178;21.016;2023-07-24T03:29:40;42.80;;;26.20;;
17032;SDS011;63208;52.178;21.016;2023-07-24T03:32:07;28.70;;;22.40;;
17032;SDS011;63208;52.178;21.016;2023-07-24T03:34:34;29.42;;;22.13;;
17032;SDS011;63208;52.178;21.016;2023-07-24T03:37:01;21.60;;;19.35;;
17032;SDS011;63208;52.178;21.016;2023-07-24T03:39:31;22.45;;;19.90;;
17032;SDS011;63208;52.178;21.016;2023-07-24T03:41:59;18.80;;;17.10;;
17032;SDS011;63208;52.178;21.016;2023-07-24T03:44:27;18.17;;;16.67;;
17032;SDS011;63208;52.178;21.016;2023-07-24T03:46:54;18.85;;;17.15;;
17032;SDS011;63208;52.178;21.016;2023-07-24T03:49:21;21.08;;;18.92;;
17032;SDS011;63208;52.178;21.016;2023-07-24T03:56:42;22.83;;;20.33;;
17032;SDS011;63208;52.178;21.016;2023-07-24T04:01:38;19.40;;;17.50;;
17032;SDS011;63208;52.178;21.016;2023-07-24T04:04:05;23.40;;;20.55;;
17032;SDS011;63208;52.178;21.016;2023-07-24T04:06:32;24.55;;;20.65;;
17032;SDS011;63208;52.178;21.016;2023-07-24T04:11:25;22.00;;;19.70;;
17032;SDS011;63208;52.178;21.016;2023-07-24T04:13:52;18.73;;;17.05;;
17032;SDS011;63208;52.178;21.016;2023-07-24T04:16:19;18.83;;;17.08;;
17032;SDS011;63208;52.178;21.016;2023-07-24T04:18:48;16.20;;;14.80;;
17032;SDS011;63208;52.178;21.016;2023-07-24T04:21:15;15.98;;;14.60;;
17032;SDS011;63208;52.178;21.016;2023-07-24T04:26:09;20.10;;;18.17;;
17032;SDS011;63208;52.178;21.016;2023-07-24T04:33:30;19.40;;;17.50;;
17032;SDS011;63208;52.178;21.016;2023-07-24T04:35:58;20.27;;;18.23;;
17032;SDS011;63208;52.178;21.016;2023-07-24T04:38:25;17.80;;;16.17;;
17032;SDS011;63208;52.178;21.016;2023-07-24T04:40:53;19.77;;;17.80;;
17032;SDS011;63208;52.178;21.016;2023-07-24T04:43:20;29.20;;;22.63;;
17032;SDS011;63208;52.178;21.016;2023-07-24T05:05:22;79.80;;;33.70;;
17032;SDS011;63208;52.178;21.016;2023-07-24T05:07:49;20.53;;;13.37;;
17032;SDS011;63208;52.178;21.016;2023-07-24T05:10:17;23.10;;;16.40;;
17032;SDS011;63208;52.178;21.016;2023-07-24T05:12:45;85.17;;;35.13;;
17032;SDS011;63208;52.178;21.016;2023-07-24T05:15:14;93.43;;;35.57;;
17032;SDS011;63208;52.178;21.016;2023-07-24T05:17:42;103.00;;;35.73;;
17032;SDS011;63208;52.178;21.016;2023-07-24T05:20:10;93.40;;;33.17;;
17032;SDS011;63208;52.178;21.016;2023-07-24T05:22:37;112.57;;;36.33;;
17032;SDS011;63208;52.178;21.016;2023-07-24T05:25:05;104.47;;;34.90;;
17032;SDS011;63208;52.178;21.016;2023-07-24T05:27:34;87.70;;;34.13;;
17032;SDS011;63208;52.178;21.016;2023-07-24T05:30:03;87.33;;;33.10;;
17032;SDS011;63208;52.178;21.016;2023-07-24T05:32:30;96.60;;;33.97;;
17032;SDS011;63208;52.178;21.016;2023-07-24T05:34:57;81.00;;;32.47;;
17032;SDS011;63208;52.178;21.016;2023-07-24T05:37:24;93.70;;;33.23;;
17032;SDS011;63208;52.178;21.016;2023-07-24T05:39:51;97.73;;;36.77;;
17032;SDS011;63208;52.178;21.016;2023-07-24T05:42:18;61.15;;;29.67;;
17032;SDS011;63208;52.178;21.016;2023-07-24T05:44:47;75.40;;;31.27;;
17032;SDS011;63208;52.178;21.016;2023-07-24T05:47:14;56.63;;;28.83;;
17032;SDS011;63208;52.178;21.016;2023-07-24T05:49:41;39.75;;;25.23;;
17032;SDS011;63208;52.178;21.016;2023-07-24T05:52:08;36.23;;;24.63;;
17032;SDS011;63208;52.178;21.016;2023-07-24T05:54:35;55.72;;;28.63;;
17032;SDS011;63208;52.178;21.016;2023-07-24T05:57:01;58.30;;;29.00;;
17032;SDS011;63208;52.178;21.016;2023-07-24T05:59:28;28.80;;;21.88;;
17032;SDS011;63208;52.178;21.016;2023-07-24T06:01:57;46.28;;;27.52;;
17032;SDS011;63208;52.178;21.016;2023-07-24T06:04:24;44.70;;;26.27;;
17032;SDS011;63208;52.178;21.016;2023-07-24T06:06:51;53.20;;;29.77;;
17032;SDS011;63208;52.178;21.016;2023-07-24T06:09:18;41.35;;;25.42;;
17032;SDS011;63208;52.178;21.016;2023-07-24T06:11:45;30.17;;;23.20;;
17032;SDS011;63208;52.178;21.016;2023-07-24T06:14:12;35.15;;;23.88;;
17032;SDS011;63208;52.178;21.016;2023-07-24T06:16:40;47.40;;;26.73;;
17032;SDS011;63208;52.178;21.016;2023-07-24T06:19:09;40.97;;;25.35;;
17032;SDS011;63208;52.178;21.016;2023-07-24T06:21:36;49.60;;;27.67;;
17032;SDS011;63208;52.178;21.016;2023-07-24T06:24:06;37.67;;;24.45;;
17032;SDS011;63208;52.178;21.016;2023-07-24T06:29:03;40.80;;;26.93;;
17032;SDS011;63208;52.178;21.016;2023-07-24T06:33:57;69.90;;;33.27;;
17032;SDS011;63208;52.178;21.016;2023-07-24T06:36:25;73.30;;;31.58;;
17032;SDS011;63208;52.178;21.016;2023-07-24T06:41:35;43.40;;;27.05;;
17032;SDS011;63208;52.178;21.016;2023-07-24T06:44:01;47.95;;;26.90;;
17032;SDS011;63208;52.178;21.016;2023-07-24T06:46:28;78.10;;;33.60;;
17032;SDS011;63208;52.178;21.016;2023-07-24T06:48:55;28.80;;;21.20;;
17032;SDS011;63208;52.178;21.016;2023-07-24T06:51:22;50.15;;;27.23;;
17032;SDS011;63208;52.178;21.016;2023-07-24T06:53:51;58.72;;;29.85;;
17032;SDS011;63208;52.178;21.016;2023-07-24T06:56:18;58.42;;;29.90;;
17032;SDS011;63208;52.178;21.016;2023-07-24T06:58:45;85.55;;;32.75;;
17032;SDS011;63208;52.178;21.016;2023-07-24T07:01:12;49.75;;;27.77;;
17032;SDS011;63208;52.178;21.016;2023-07-24T07:03:38;63.80;;;29.80;;
17032;SDS011;63208;52.178;21.016;2023-07-24T07:06:05;62.97;;;29.13;;
17032;SDS011;63208;52.178;21.016;2023-07-24T14:10:57;14.87;;;2.93;;
17032;SDS011;63208;52.178;21.016;2023-07-24T14:13:30;3.15;;;2.53;;
17032;SDS011;63208;52.178;21.016;2023-07-24T14:15:58;2.70;;;2.30;;
17032;SDS011;63208;52.178;21.016;2023-07-24T14:18:25;3.20;;;2.58;;
17032;SDS011;63208;52.178;21.016;2023-07-24T14:20:52;15.88;;;3.28;;
17032;SDS011;63208;52.178;21.016;2023-07-24T14:23:20;524.53;;;485.08;;
17032;SDS011;63208;52.178;21.016;2023-07-24T14:25:47;428.17;;;272.17;;
17032;SDS011;63208;52.178;21.016;2023-07-24T14:28:14;338.40;;;275.77;;
17032;SDS011;63208;52.178;21.016;2023-07-24T14:30:41;108.22;;;87.40;;
17032;SDS011;63208;52.178;21.016;2023-07-24T14:33:10;8.90;;;2.60;;
17032;SDS011;63208;52.178;21.016;2023-07-24T14:35:36;2.80;;;2.55;;
17032;SDS011;63208;52.178;21.016;2023-07-24T14:38:07;2.78;;;2.30;;
17032;SDS011;63208;52.178;21.016;2023-07-24T14:40:45;3.22;;;2.95;;
17032;SDS011;63208;52.178;21.016;2023-07-24T14:43:12;2.80;;;2.60;;
17032;SDS011;63208;52.178;21.016;2023-07-24T14:45:39;2.65;;;2.45;;
17032;SDS011;63208;52.178;21.016;2023-07-24T14:48:06;3.40;;;2.47;;
17032;SDS011;63208;52.178;21.016;2023-07-24T14:50:36;2.97;;;2.60;;
17032;SDS011;63208;52.178;21.016;2023-07-24T14:53:03;2.60;;;2.38;;
17032;SDS011;63208;52.178;21.016;2023-07-24T14:55:31;3.40;;;2.90;;
17032;SDS011;63208;52.178;21.016;2023-07-24T14:57:57;2.95;;;2.67;;
17032;SDS011;63208;52.178;21.016;2023-07-24T15:00:24;2.78;;;2.58;;
17032;SDS011;63208;52.178;21.016;2023-07-24T15:02:51;2.92;;;2.63;;
17032;SDS011;63208;52.178;21.016;2023-07-24T15:05:18;3.67;;;2.90;;
17032;SDS011;63208;52.178;21.016;2023-07-24T15:07:46;3.20;;;2.88;;
17032;SDS011;63208;52.178;21.016;2023-07-24T15:10:13;10.15;;;2.83;;
17032;SDS011;63208;52.178;21.016;2023-07-24T15:12:40;4.90;;;3.08;;
17032;SDS011;63208;52.178;21.016;2023-07-24T15:15:07;3.08;;;2.78;;
17032;SDS011;63208;52.178;21.016;2023-07-24T15:17:34;6.28;;;2.72;;
17032;SDS011;63208;52.178;21.016;2023-07-24T15:20:01;3.15;;;2.80;;
17032;SDS011;63208;52.178;21.016;2023-07-24T15:22:29;4.70;;;3.00;;
17032;SDS011;63208;52.178;21.016;2023-07-24T15:24:57;10.57;;;3.00;;
17032;SDS011;63208;52.178;21.016;2023-07-24T15:27:24;3.90;;;3.17;;
17032;SDS011;63208;52.178;21.016;2023-07-24T15:29:51;4.53;;;3.00;;
17032;SDS011;63208;52.178;21.016;2023-07-24T15:32:18;3.28;;;2.90;;
17032;SDS011;63208;52.178;21.016;2023-07-24T15:34:44;3.20;;;2.90;;
17032;SDS011;63208;52.178;21.016;2023-07-24T15:37:12;3.67;;;2.95;;
17032;SDS011;63208;52.178;21.016;2023-07-24T15:39:38;4.18;;;3.28;;
17032;SDS011;63208;52.178;21.016;2023-07-24T15:42:07;4.30;;;3.35;;
17032;SDS011;63208;52.178;21.016;2023-07-24T15:44:33;3.70;;;3.20;;
17032;SDS011;63208;52.178;21.016;2023-07-24T15:47:00;3.53;;;3.20;;
17032;SDS011;63208;52.178;21.016;2023-07-24T15:49:27;3.83;;;3.38;;
17032;SDS011;63208;52.178;21.016;2023-07-24T15:51:54;5.00;;;3.60;;
17032;SDS011;63208;52.178;21.016;2023-07-24T15:54:23;4.43;;;3.55;;
17032;SDS011;63208;52.178;21.016;2023-07-24T15:56:50;3.95;;;3.28;;
17032;SDS011;63208;52.178;21.016;2023-07-24T16:02:28;4.00;;;3.50;;
17032;SDS011;63208;52.178;21.016;2023-07-24T16:04:55;3.85;;;3.53;;
17032;SDS011;63208;52.178;21.016;2023-07-24T16:07:22;3.78;;;3.38;;
17032;SDS011;63208;52.178;21.016;2023-07-24T16:09:49;8.27;;;3.50;;
17032;SDS011;63208;52.178;21.016;2023-07-24T16:12:16;4.18;;;3.33;;
17032;SDS011;63208;52.178;21.016;2023-07-24T16:14:43;5.68;;;3.50;;
17032;SDS011;63208;52.178;21.016;2023-07-24T16:17:10;20.75;;;4.10;;
17032;SDS011;63208;52.178;21.016;2023-07-24T16:23:00;3.80;;;3.40;;
17032;SDS011;63208;52.178;21.016;2023-07-24T16:25:27;6.60;;;3.60;;
17032;SDS011;63208;52.178;21.016;2023-07-24T16:27:55;10.18;;;3.75;;
17032;SDS011;63208;52.178;21.016;2023-07-24T16:30:22;4.70;;;3.30;;
17032;SDS011;63208;52.178;21.016;2023-07-24T16:32:49;5.20;;;3.30;;
17032;SDS011;63208;52.178;21.016;2023-07-24T16:35:16;3.70;;;3.40;;
17032;SDS011;63208;52.178;21.016;2023-07-24T16:37:49;107.53;;;97.75;;
17032;SDS011;63208;52.178;21.016;2023-07-24T16:40:21;4.32;;;3.10;;
17032;SDS011;63208;52.178;21.016;2023-07-24T16:42:48;5.03;;;3.30;;
17032;SDS011;63208;52.178;21.016;2023-07-24T16:45:15;4.10;;;3.58;;
17032;SDS011;63208;52.178;21.016;2023-07-24T16:47:41;4.50;;;3.40;;
17032;SDS011;63208;52.178;21.016;2023-07-24T16:50:09;3.67;;;3.30;;
17032;SDS011;63208;52.178;21.016;2023-07-24T16:52:36;3.50;;;3.20;;
17032;SDS011;63208;52.178;21.016;2023-07-24T16:55:03;4.93;;;3.70;;
17032;SDS011;63208;52.178;21.016;2023-07-24T16:57:32;4.93;;;3.65;;
17032;SDS011;63208;52.178;21.016;2023-07-24T17:00:00;4.45;;;3.60;;
17032;SDS011;63208;52.178;21.016;2023-07-24T17:02:27;6.50;;;3.53;;
17032;SDS011;63208;52.178;21.016;2023-07-24T17:04:58;4.63;;;3.33;;
17032;SDS011;63208;52.178;21.016;2023-07-24T17:07:25;6.22;;;3.60;;
17032;SDS011;63208;52.178;21.016;2023-07-24T17:09:52;5.07;;;3.50;;
17032;SDS011;63208;52.178;21.016;2023-07-24T17:12:19;5.82;;;3.38;;
17032;SDS011;63208;52.178;21.016;2023-07-24T17:14:49;3.97;;;3.03;;
17032;SDS011;63208;52.178;21.016;2023-07-24T17:17:23;6.18;;;4.10;;
17032;SDS011;63208;52.178;21.016;2023-07-24T17:19:50;7.40;;;3.80;;
17032;SDS011;63208;52.178;21.016;2023-07-24T17:22:17;5.13;;;3.70;;
17032;SDS011;63208;52.178;21.016;2023-07-24T17:24:44;6.07;;;4.15;;
17032;SDS011;63208;52.178;21.016;2023-07-24T17:27:10;4.88;;;4.00;;
17032;SDS011;63208;52.178;21.016;2023-07-24T17:29:37;8.10;;;5.07;;
17032;SDS011;63208;52.178;21.016;2023-07-24T17:32:06;3.60;;;3.30;;
17032;SDS011;63208;52.178;21.016;2023-07-24T17:34:33;5.90;;;4.13;;
17032;SDS011;63208;52.178;21.016;2023-07-24T17:37:00;7.00;;;4.13;;
17032;SDS011;63208;52.178;21.016;2023-07-24T17:39:27;9.52;;;4.35;;
17032;SDS011;63208;52.178;21.016;2023-07-24T17:41:54;6.13;;;4.20;;
17032;SDS011;63208;52.178;21.016;2023-07-24T17:44:21;9.38;;;4.50;;
17032;SDS011;63208;52.178;21.016;2023-07-24T17:46:48;6.60;;;5.03;;
17032;SDS011;63208;52.178;21.016;2023-07-24T17:49:16;7.80;;;4.85;;
17032;SDS011;63208;52.178;21.016;2023-07-24T17:51:43;8.55;;;4.85;;
17032;SDS011;63208;52.178;21.016;2023-07-24T17:54:09;7.07;;;5.10;;
17032;SDS011;63208;52.178;21.016;2023-07-24T17:56:36;6.32;;;4.63;;
17032;SDS011;63208;52.178;21.016;2023-07-24T17:59:03;8.68;;;4.57;;
17032;SDS011;63208;52.178;21.016;2023-07-24T18:01:30;6.38;;;4.60;;
17032;SDS011;63208;52.178;21.016;2023-07-24T18:07:27;11.18;;;5.18;;
17032;SDS011;63208;52.178;21.016;2023-07-24T18:10:22;9.02;;;5.20;;
17032;SDS011;63208;52.178;21.016;2023-07-24T18:16:30;6.38;;;4.53;;
17032;SDS011;63208;52.178;21.016;2023-07-24T18:18:57;8.98;;;5.10;;
17032;SDS011;63208;52.178;21.016;2023-07-24T18:21:23;8.05;;;4.43;;
17032;SDS011;63208;52.178;21.016;2023-07-24T18:23:52;9.57;;;5.68;;
17032;SDS011;63208;52.178;21.016;2023-07-24T18:26:19;6.22;;;4.35;;
17032;SDS011;63208;52.178;21.016;2023-07-24T18:28:46;7.25;;;5.28;;
17032;SDS011;63208;52.178;21.016;2023-07-24T18:31:12;9.23;;;4.57;;
17032;SDS011;63208;52.178;21.016;2023-07-24T18:33:40;7.22;;;4.90;;
17032;SDS011;63208;52.178;21.016;2023-07-24T18:36:06;8.10;;;5.65;;
17032;SDS011;63208;52.178;21.016;2023-07-24T18:55:09;8.63;;;4.97;;
17032;SDS011;63208;52.178;21.016;2023-07-24T18:57:36;7.45;;;4.63;;
17032;SDS011;63208;52.178;21.016;2023-07-24T19:00:04;23.30;;;5.90;;
17032;SDS011;63208;52.178;21.016;2023-07-24T19:02:32;7.47;;;5.03;;
17032;SDS011;63208;52.178;21.016;2023-07-24T19:04:58;8.30;;;5.30;;
17032;SDS011;63208;52.178;21.016;2023-07-24T19:07:25;8.10;;;5.38;;
17032;SDS011;63208;52.178;21.016;2023-07-24T19:09:52;9.02;;;4.93;;
17032;SDS011;63208;52.178;21.016;2023-07-24T19:12:20;6.95;;;4.55;;
17032;SDS011;63208;52.178;21.016;2023-07-24T19:14:47;6.93;;;4.40;;
17032;SDS011;63208;52.178;21.016;2023-07-24T19:17:20;7.13;;;4.72;;
17032;SDS011;63208;52.178;21.016;2023-07-24T19:19:47;6.47;;;4.10;;
17032;SDS011;63208;52.178;21.016;2023-07-24T19:22:16;7.07;;;4.47;;
17032;SDS011;63208;52.178;21.016;2023-07-24T19:24:43;7.57;;;4.90;;
17032;SDS011;63208;52.178;21.016;2023-07-24T19:27:10;5.88;;;3.92;;
17032;SDS011;63208;52.178;21.016;2023-07-24T19:29:38;9.63;;;4.05;;
17032;SDS011;63208;52.178;21.016;2023-07-24T19:32:05;8.50;;;4.50;;
17032;SDS011;63208;52.178;21.016;2023-07-24T19:34:34;6.32;;;4.35;;
17032;SDS011;63208;52.178;21.016;2023-07-24T19:37:00;6.43;;;4.25;;
17032;SDS011;63208;52.178;21.016;2023-07-24T19:39:27;5.35;;;4.13;;
17032;SDS011;63208;52.178;21.016;2023-07-24T19:41:54;7.28;;;4.10;;
17032;SDS011;63208;52.178;21.016;2023-07-24T19:44:21;7.65;;;5.10;;
17032;SDS011;63208;52.178;21.016;2023-07-24T19:46:49;5.88;;;3.90;;
17032;SDS011;63208;52.178;21.016;2023-07-24T19:49:16;7.57;;;4.15;;
17032;SDS011;63208;52.178;21.016;2023-07-24T19:51:43;5.15;;;3.83;;
17032;SDS011;63208;52.178;21.016;2023-07-24T19:54:10;4.85;;;3.80;;
17032;SDS011;63208;52.178;21.016;2023-07-24T19:56:37;8.23;;;4.38;;
17032;SDS011;63208;52.178;21.016;2023-07-24T19:59:04;8.50;;;3.95;;
17032;SDS011;63208;52.178;21.016;2023-07-24T20:01:30;5.03;;;3.97;;
17032;SDS011;63208;52.178;21.016;2023-07-24T20:03:59;4.75;;;3.67;;
17032;SDS011;63208;52.178;21.016;2023-07-24T20:06:26;5.90;;;3.90;;
17032;SDS011;63208;52.178;21.016;2023-07-24T20:11:32;3.90;;;3.50;;
17032;SDS011;63208;52.178;21.016;2023-07-24T20:13:59;6.93;;;4.00;;
17032;SDS011;63208;52.178;21.016;2023-07-24T20:16:35;6.07;;;3.88;;
17032;SDS011;63208;52.178;21.016;2023-07-24T20:19:04;5.40;;;3.42;;
17032;SDS011;63208;52.178;21.016;2023-07-24T20:21:31;5.30;;;4.03;;
17032;SDS011;63208;52.178;21.016;2023-07-24T20:24:06;5.07;;;3.65;;
17032;SDS011;63208;52.178;21.016;2023-07-24T20:26:34;5.07;;;3.92;;
17032;SDS011;63208;52.178;21.016;2023-07-24T20:29:02;8.55;;;3.97;;
17032;SDS011;63208;52.178;21.016;2023-07-24T20:31:29;6.05;;;4.13;;
17032;SDS011;63208;52.178;21.016;2023-07-24T20:33:56;5.75;;;4.07;;
17032;SDS011;63208;52.178;21.016;2023-07-24T20:36:24;5.97;;;4.05;;
17032;SDS011;63208;52.178;21.016;2023-07-24T20:38:51;978.57;;;914.13;;
17032;SDS011;63208;52.178;21.016;2023-07-24T20:41:17;991.77;;;927.83;;
17032;SDS011;63208;52.178;21.016;2023-07-24T20:43:44;946.23;;;890.33;;
17032;SDS011;63208;52.178;21.016;2023-07-24T20:46:12;842.10;;;789.73;;
17032;SDS011;63208;52.178;21.016;2023-07-24T20:48:39;680.53;;;634.10;;
17032;SDS011;63208;52.178;21.016;2023-07-24T20:51:12;752.23;;;703.83;;
17032;SDS011;63208;52.178;21.016;2023-07-24T20:53:41;670.73;;;620.60;;
17032;SDS011;63208;52.178;21.016;2023-07-24T20:56:09;623.70;;;578.77;;
17032;SDS011;63208;52.178;21.016;2023-07-24T20:58:36;611.30;;;565.50;;
17032;SDS011;63208;52.178;21.016;2023-07-24T21:01:03;593.00;;;549.13;;
17032;SDS011;63208;52.178;21.016;2023-07-24T21:03:31;600.53;;;555.93;;
17032;SDS011;63208;52.178;21.016;2023-07-24T21:05:58;601.10;;;555.83;;
17032;SDS011;63208;52.178;21.016;2023-07-24T21:08:25;587.67;;;543.20;;
17032;SDS011;63208;52.178;21.016;2023-07-24T21:10:53;569.00;;;524.53;;
17032;SDS011;63208;52.178;21.016;2023-07-24T21:13:20;534.33;;;490.57;;
17032;SDS011;63208;52.178;21.016;2023-07-24T21:15:47;525.77;;;483.03;;
17032;SDS011;63208;52.178;21.016;2023-07-24T21:18:15;511.90;;;470.20;;
17032;SDS011;63208;52.178;21.016;2023-07-24T21:20:42;517.27;;;474.57;;
17032;SDS011;63208;52.178;21.016;2023-07-24T21:23:08;525.97;;;482.87;;
17032;SDS011;63208;52.178;21.016;2023-07-24T21:25:35;536.07;;;493.37;;
17032;SDS011;63208;52.178;21.016;2023-07-24T21:28:03;529.87;;;487.07;;
17032;SDS011;63208;52.178;21.016;2023-07-24T21:30:30;507.23;;;465.20;;
17032;SDS011;63208;52.178;21.016;2023-07-24T21:32:57;515.80;;;472.23;;
17032;SDS011;63208;52.178;21.016;2023-07-24T21:35:24;483.50;;;442.87;;
17032;SDS011;63208;52.178;21.016;2023-07-24T21:40:41;468.73;;;426.87;;
17032;SDS011;63208;52.178;21.016;2023-07-24T21:43:09;459.77;;;417.90;;
17032;SDS011;63208;52.178;21.016;2023-07-24T21:45:36;466.07;;;420.37;;
17032;SDS011;63208;52.178;21.016;2023-07-24T21:48:03;429.60;;;387.80;;
17032;SDS011;63208;52.178;21.016;2023-07-24T21:50:31;459.27;;;417.07;;
17032;SDS011;63208;52.178;21.016;2023-07-24T21:52:57;437.37;;;397.50;;
17032;SDS011;63208;52.178;21.016;2023-07-24T21:55:26;417.03;;;376.57;;
17032;SDS011;63208;52.178;21.016;2023-07-24T21:57:53;420.57;;;379.50;;
17032;SDS011;63208;52.178;21.016;2023-07-24T22:00:23;393.27;;;354.87;;
17032;SDS011;63208;52.178;21.016;2023-07-24T22:02:50;381.70;;;336.77;;
17032;SDS011;63208;52.178;21.016;2023-07-24T22:05:17;382.07;;;343.33;;
17032;SDS011;63208;52.178;21.016;2023-07-24T22:07:44;356.97;;;312.53;;
17032;SDS011;63208;52.178;21.016;2023-07-24T22:10:11;361.13;;;305.63;;
17032;SDS011;63208;52.178;21.016;2023-07-24T22:12:38;361.20;;;299.37;;
17032;SDS011;63208;52.178;21.016;2023-07-24T22:15:05;352.57;;;300.00;;
17032;SDS011;63208;52.178;21.016;2023-07-24T22:17:34;355.50;;;296.83;;
17032;SDS011;63208;52.178;21.016;2023-07-24T22:20:01;353.27;;;301.50;;
17032;SDS011;63208;52.178;21.016;2023-07-24T22:22:31;366.80;;;314.47;;
17032;SDS011;63208;52.178;21.016;2023-07-24T22:24:58;358.57;;;309.83;;
17032;SDS011;63208;52.178;21.016;2023-07-24T22:27:25;360.23;;;299.83;;
17032;SDS011;63208;52.178;21.016;2023-07-24T22:29:52;362.47;;;306.27;;
17032;SDS011;63208;52.178;21.016;2023-07-24T22:32:20;351.63;;;295.67;;
17032;SDS011;63208;52.178;21.016;2023-07-24T22:34:48;364.90;;;311.03;;
17032;SDS011;63208;52.178;21.016;2023-07-24T22:37:16;375.90;;;313.63;;